createdAt,value
2019-06-01T00:01:07.250Z,96520.00
2019-06-01T00:03:40.258Z,96514.00
2019-06-01T00:06:16.699Z,96523.00
2019-06-01T00:08:49.305Z,96516.00
2019-06-01T00:11:21.235Z,96515.00
2019-06-01T00:13:53.451Z,96517.00
2019-06-01T00:16:25.672Z,96521.00
2019-06-01T00:19:00.505Z,96510.00
2019-06-01T00:21:32.416Z,96509.00
2019-06-01T00:24:05.093Z,96509.00
2019-06-01T00:26:37.578Z,96518.00
2019-06-01T00:29:09.444Z,96512.00
2019-06-01T00:31:42.955Z,96509.00
2019-06-01T00:34:15.382Z,96514.00
2019-06-01T00:36:47.806Z,96516.00
2019-06-01T00:39:20.135Z,96507.00
2019-06-01T00:41:52.629Z,96506.00
2019-06-01T00:44:25.068Z,96505.00
2019-06-01T00:46:57.163Z,96505.00
2019-06-01T00:49:30.017Z,96500.00
2019-06-01T00:52:02.015Z,96503.00
2019-06-01T00:54:34.208Z,96511.00
2019-06-01T00:57:06.819Z,96502.00
2019-06-01T00:59:39.076Z,96509.00
2019-06-01T01:02:10.920Z,96490.00
2019-06-01T01:04:44.163Z,96508.00
2019-06-01T01:07:18.931Z,96498.00
2019-06-01T01:09:51.486Z,96505.00
2019-06-01T01:12:23.713Z,96497.00
2019-06-01T01:14:55.858Z,96500.00
2019-06-01T01:17:27.697Z,96509.00
2019-06-01T01:19:59.635Z,96507.00
2019-06-01T01:22:31.968Z,96505.00
2019-06-01T01:25:05.039Z,96497.00
2019-06-01T01:27:36.963Z,96498.00
2019-06-01T01:30:09.180Z,96490.00
2019-06-01T01:32:41.295Z,96494.00
2019-06-01T01:35:13.555Z,96494.00
2019-06-01T01:37:45.746Z,96498.00
2019-06-01T01:40:17.665Z,96500.00
2019-06-01T01:42:50.570Z,96496.00
2019-06-01T01:45:22.642Z,96490.00
2019-06-01T01:47:55.072Z,96486.00
2019-06-01T01:50:27.995Z,96488.00
2019-06-01T01:53:00.232Z,96478.00
2019-06-01T01:55:32.397Z,96490.00
2019-06-01T01:58:04.441Z,96488.00
2019-06-01T02:00:46.957Z,96490.00
2019-06-01T02:03:18.811Z,96487.00
2019-06-01T02:05:51.154Z,96490.00
2019-06-01T02:08:23.050Z,96494.00
2019-06-01T02:10:55.434Z,96487.00
2019-06-01T02:13:27.259Z,96490.00
2019-06-01T02:16:00.543Z,96491.00
2019-06-01T02:18:33.077Z,96485.00
2019-06-01T02:21:05.071Z,96477.00
2019-06-01T02:23:37.255Z,96485.00
2019-06-01T02:26:09.594Z,96471.00
2019-06-01T02:28:41.442Z,96479.00
2019-06-01T02:31:13.343Z,96480.00
2019-06-01T02:33:45.196Z,96470.00
2019-06-01T02:36:17.078Z,96472.00
2019-06-01T02:38:48.930Z,96476.00
2019-06-01T02:41:21.231Z,96470.00
2019-06-01T02:43:54.751Z,96471.00
2019-06-01T02:46:27.423Z,96469.00
2019-06-01T02:49:01.910Z,96474.00
2019-06-01T02:51:34.097Z,96472.00
2019-06-01T02:54:07.034Z,96471.00
2019-06-01T02:56:39.188Z,96472.00
2019-06-01T02:59:11.320Z,96460.00
2019-06-01T03:01:56.009Z,96469.00
2019-06-01T03:04:17.121Z,96464.00
2019-06-01T03:06:50.220Z,96467.00
2019-06-01T03:09:23.857Z,96458.00
2019-06-01T03:12:00.344Z,96462.00
2019-06-01T03:14:34.679Z,96453.00
2019-06-01T03:17:07.892Z,96460.00
2019-06-01T03:19:41.784Z,96459.00
2019-06-01T03:22:16.250Z,96453.00
2019-06-01T03:24:48.568Z,96453.00
2019-06-01T03:27:23.189Z,96456.00
2019-06-01T03:29:57.433Z,96456.00
2019-06-01T03:32:36.909Z,96445.00
2019-06-01T03:35:03.213Z,96452.00
2019-06-01T03:37:35.883Z,96444.00
2019-06-01T03:40:15.820Z,96441.00
2019-06-01T03:42:42.071Z,96443.00
2019-06-01T03:45:14.149Z,96444.00
2019-06-01T03:47:46.077Z,96452.00
2019-06-01T03:50:18.321Z,96451.00
2019-06-01T03:52:50.187Z,96450.00
2019-06-01T03:55:22.345Z,96455.00
2019-06-01T03:57:54.703Z,96457.00
2019-06-01T04:00:26.857Z,96455.00
2019-06-01T04:02:58.777Z,96460.00
2019-06-01T04:05:30.641Z,96458.00
2019-06-01T04:08:03.470Z,96447.00
2019-06-01T04:10:35.590Z,96455.00
2019-06-01T04:13:07.599Z,96453.00
2019-06-01T04:15:39.495Z,96458.00
2019-06-01T04:18:13.879Z,96460.00
2019-06-01T04:20:45.320Z,96452.00
2019-06-01T04:23:17.202Z,96464.00
2019-06-01T04:25:49.046Z,96460.00
2019-06-01T04:28:21.472Z,96458.00
2019-06-01T04:30:53.607Z,96471.00
2019-06-01T04:33:25.494Z,96464.00
2019-06-01T04:35:57.325Z,96452.00
2019-06-01T04:38:29.217Z,96458.00
2019-06-01T04:41:01.396Z,96446.00
2019-06-01T04:43:33.598Z,96447.00
2019-06-01T04:46:06.149Z,96443.00
2019-06-01T04:48:38.470Z,96442.00
2019-06-01T04:51:12.144Z,96447.00
2019-06-01T04:53:44.751Z,96456.00
2019-06-01T04:56:16.578Z,96453.00
2019-06-01T04:58:48.995Z,96448.00
2019-06-01T05:01:21.434Z,96449.00
2019-06-01T05:03:54.459Z,96446.00
2019-06-01T05:06:26.313Z,96450.00
2019-06-01T05:08:58.564Z,96447.00
2019-06-01T05:11:30.952Z,96447.00
2019-06-01T05:14:03.367Z,96456.00
2019-06-01T05:16:35.588Z,96458.00
2019-06-01T05:19:08.060Z,96454.00
2019-06-01T05:21:40.235Z,96458.00
2019-06-01T05:24:12.715Z,96463.00
2019-06-01T05:26:44.889Z,96465.00
2019-06-01T05:29:18.132Z,96460.00
2019-06-01T05:31:50.277Z,96456.00
2019-06-01T05:34:22.333Z,96461.00
2019-06-01T05:36:54.476Z,96450.00
2019-06-01T05:39:26.385Z,96453.00
2019-06-01T05:41:58.530Z,96444.00
2019-06-01T05:44:31.319Z,96443.00
2019-06-01T05:47:03.500Z,96440.00
2019-06-01T05:49:35.755Z,96440.00
2019-06-01T05:52:08.093Z,96435.00
2019-06-01T05:54:40.257Z,96442.00
2019-06-01T05:57:12.886Z,96440.00
2019-06-01T05:59:45.069Z,96439.00
2019-06-01T06:02:17.523Z,96440.00
2019-06-01T06:04:49.675Z,96435.00
2019-06-01T06:07:21.394Z,96440.00
2019-06-01T06:09:53.544Z,96431.00
2019-06-01T06:12:25.473Z,96442.00
2019-06-01T06:14:57.656Z,96446.00
2019-06-01T06:17:29.545Z,96443.00
2019-06-01T06:20:02.436Z,96440.00
2019-06-01T06:22:34.838Z,96444.00
2019-06-01T06:25:07.354Z,96442.00
2019-06-01T06:27:39.277Z,96442.00
2019-06-01T06:30:12.732Z,96450.00
2019-06-01T06:32:44.782Z,96454.00
2019-06-01T06:35:17.402Z,96444.00
2019-06-01T06:37:50.054Z,96447.00
2019-06-01T06:40:24.342Z,96446.00
2019-06-01T06:42:56.474Z,96441.00
2019-06-01T06:45:29.418Z,96443.00
2019-06-01T06:48:01.561Z,96445.00
2019-06-01T06:50:34.180Z,96444.00
2019-06-01T06:53:06.294Z,96449.00
2019-06-01T06:55:39.797Z,96446.00
2019-06-01T06:58:11.587Z,96444.00
2019-06-01T07:00:43.518Z,96441.00
2019-06-01T07:03:16.805Z,96448.00
2019-06-01T07:05:48.922Z,96447.00
2019-06-01T07:08:21.761Z,96438.00
2019-06-01T07:10:53.870Z,96443.00
2019-06-01T07:13:26.031Z,96443.00
2019-06-01T07:15:58.213Z,96446.00
2019-06-01T07:18:33.136Z,96445.00
2019-06-01T07:21:08.136Z,96444.00
2019-06-01T07:23:40.403Z,96453.00
2019-06-01T07:26:12.604Z,96447.00
2019-06-01T07:28:46.122Z,96450.00
2019-06-01T07:31:20.105Z,96449.00
2019-06-01T07:33:53.113Z,96444.00
2019-06-01T07:36:26.977Z,96451.00
2019-06-01T07:39:00.003Z,96442.00
2019-06-01T07:41:33.037Z,96442.00
2019-06-01T07:44:05.331Z,96449.00
2019-06-01T07:46:37.327Z,96438.00
2019-06-01T07:49:09.534Z,96443.00
2019-06-01T07:51:42.136Z,96441.00
2019-06-01T07:54:14.067Z,96443.00
2019-06-01T07:56:46.304Z,96450.00
2019-06-01T07:59:18.552Z,96443.00
2019-06-01T08:01:51.025Z,96442.00
2019-06-01T08:04:24.705Z,96445.00
2019-06-01T08:06:57.528Z,96447.00
2019-06-01T08:09:29.851Z,96446.00
2019-06-01T08:12:02.529Z,96442.00
2019-06-01T08:14:34.635Z,96445.00
2019-06-01T08:17:06.782Z,96449.00
2019-06-01T08:19:38.898Z,96443.00
2019-06-01T08:22:12.597Z,96446.00
2019-06-01T08:24:44.529Z,96438.00
2019-06-01T08:27:16.434Z,96436.00
2019-06-01T08:29:48.673Z,96434.00
2019-06-01T08:32:22.610Z,96435.00
2019-06-01T08:35:07.941Z,96437.00
2019-06-01T08:37:29.843Z,96432.00
2019-06-01T08:40:02.124Z,96433.00
2019-06-01T08:42:34.088Z,96432.00
2019-06-01T08:45:06.709Z,96434.00
2019-06-01T08:47:39.112Z,96429.00
2019-06-01T08:50:11.753Z,96427.00
2019-06-01T08:52:43.759Z,96442.00
2019-06-01T08:55:17.414Z,96422.00
2019-06-01T08:57:49.434Z,96430.00
2019-06-01T09:00:21.246Z,96432.00
2019-06-01T09:02:53.115Z,96425.00
2019-06-01T09:05:26.787Z,96424.00
2019-06-01T09:07:58.862Z,96432.00
2019-06-01T09:10:31.434Z,96422.00
2019-06-01T09:13:03.516Z,96424.00
2019-06-01T09:15:36.244Z,96420.00
2019-06-01T09:18:08.121Z,96417.00
2019-06-01T09:20:40.624Z,96423.00
2019-06-01T09:23:13.286Z,96416.00
2019-06-01T09:25:45.527Z,96413.00
2019-06-01T09:28:17.458Z,96413.00
2019-06-01T09:30:49.286Z,96426.00
2019-06-01T09:33:21.871Z,96410.00
2019-06-01T09:35:56.541Z,96417.00
2019-06-01T09:38:31.595Z,96421.00
2019-06-01T09:41:05.044Z,96379.00
2019-06-01T09:43:37.517Z,96411.00
2019-06-01T09:46:09.679Z,96414.00
2019-06-01T09:48:41.587Z,96421.00
2019-06-01T09:51:13.909Z,96436.00
2019-06-01T09:53:45.806Z,96419.00
2019-06-01T09:56:17.972Z,96421.00
2019-06-01T09:58:50.163Z,96418.00
2019-06-01T10:01:22.802Z,96415.00
2019-06-01T10:03:55.242Z,96422.00
2019-06-01T10:06:28.371Z,96409.00
2019-06-01T10:09:00.638Z,96413.00
2019-06-01T10:11:34.227Z,96411.00
2019-06-01T10:14:06.681Z,96403.00
2019-06-01T10:16:39.040Z,96403.00
2019-06-01T10:19:11.518Z,96405.00
2019-06-01T10:21:43.861Z,96405.00
2019-06-01T10:24:16.153Z,96401.00
2019-06-01T10:26:48.041Z,96403.00
2019-06-01T10:29:20.680Z,96394.00
2019-06-01T10:31:52.554Z,96396.00
2019-06-01T10:34:24.981Z,96393.00
2019-06-01T10:36:58.209Z,96407.00
2019-06-01T10:39:31.223Z,96408.00
2019-06-01T10:42:03.574Z,96399.00
2019-06-01T10:44:41.388Z,96398.00
2019-06-01T10:47:09.858Z,96396.00
2019-06-01T10:49:42.466Z,96401.00
2019-06-01T10:52:14.566Z,96395.00
2019-06-01T10:54:46.869Z,96395.00
2019-06-01T10:57:18.697Z,96391.00
2019-06-01T10:59:52.189Z,96392.00
2019-06-01T11:02:24.702Z,96389.00
2019-06-01T11:04:56.585Z,96395.00
2019-06-01T11:07:29.035Z,96389.00
2019-06-01T11:10:01.019Z,96384.00
2019-06-01T11:12:33.121Z,96380.00
2019-06-01T11:15:05.525Z,96378.00
2019-06-01T11:17:37.385Z,96379.00
2019-06-01T11:20:10.007Z,96373.00
2019-06-01T11:22:43.737Z,96377.00
2019-06-01T11:25:15.638Z,96372.00
2019-06-01T11:27:47.522Z,96370.00
2019-06-01T11:30:21.608Z,96370.00
2019-06-01T11:32:54.093Z,96361.00
2019-06-01T11:35:26.529Z,96364.00
2019-06-01T11:37:58.831Z,96363.00
2019-06-01T11:40:32.024Z,96362.00
2019-06-01T11:43:05.007Z,96359.00
2019-06-01T11:45:37.168Z,96361.00
2019-06-01T11:48:09.566Z,96353.00
2019-06-01T11:50:43.010Z,96351.00
2019-06-01T11:53:15.720Z,96344.00
2019-06-01T11:55:48.195Z,96347.00
2019-06-01T11:58:20.057Z,96340.00
2019-06-01T12:00:51.933Z,96336.00
2019-06-01T12:03:24.087Z,96336.00
2019-06-01T12:05:56.766Z,96345.00
2019-06-01T12:08:33.796Z,96337.00
2019-06-01T12:11:03.526Z,96335.00
2019-06-01T12:13:36.029Z,96335.00
2019-06-01T12:16:08.228Z,96338.00
2019-06-01T12:18:40.610Z,96336.00
2019-06-01T12:21:12.797Z,96345.00
2019-06-01T12:23:45.693Z,96330.00
2019-06-01T12:26:20.624Z,96325.00
2019-06-01T12:28:52.743Z,96318.00
2019-06-01T12:31:25.216Z,96323.00
2019-06-01T12:33:57.477Z,96319.00
2019-06-01T12:36:29.888Z,96323.00
2019-06-01T12:39:01.723Z,96327.00
2019-06-01T12:41:33.690Z,96317.00
2019-06-01T12:44:15.818Z,96319.00
2019-06-01T12:46:49.007Z,96324.00
2019-06-01T12:49:21.085Z,96311.00
2019-06-01T12:51:53.403Z,96319.00
2019-06-01T12:54:25.308Z,96310.00
2019-06-01T12:56:57.509Z,96318.00
2019-06-01T12:59:29.345Z,96307.00
2019-06-01T13:02:01.619Z,96304.00
2019-06-01T13:04:34.248Z,96303.00
2019-06-01T13:07:06.882Z,96305.00
2019-06-01T13:09:39.325Z,96303.00
2019-06-01T13:12:11.157Z,96308.00
2019-06-01T13:14:43.386Z,96307.00
2019-06-01T13:17:15.872Z,96307.00
2019-06-01T13:19:48.008Z,96296.00
2019-06-01T13:22:20.934Z,96294.00
2019-06-01T13:24:53.263Z,96291.00
2019-06-01T13:27:25.255Z,96282.00
2019-06-01T13:29:57.569Z,96285.00
2019-06-01T13:32:29.731Z,96286.00
2019-06-01T13:35:02.117Z,96284.00
2019-06-01T13:37:34.333Z,96282.00
2019-06-01T13:40:06.322Z,96282.00
2019-06-01T13:42:38.209Z,96273.00
2019-06-01T13:45:10.387Z,96274.00
2019-06-01T13:47:43.421Z,96271.00
2019-06-01T13:50:16.011Z,96270.00
2019-06-01T13:52:48.092Z,96274.00
2019-06-01T13:55:19.920Z,96274.00
2019-06-01T13:57:52.460Z,96267.00
2019-06-01T14:00:30.225Z,96262.00
2019-06-01T14:02:58.717Z,96259.00
2019-06-01T14:05:31.352Z,96259.00
2019-06-01T14:08:04.038Z,96260.00
2019-06-01T14:10:35.913Z,96259.00
2019-06-01T14:13:07.792Z,96261.00
2019-06-01T14:15:39.629Z,96257.00
2019-06-01T14:18:12.241Z,96252.00
2019-06-01T14:20:45.513Z,96248.00
2019-06-01T14:23:18.185Z,96248.00
2019-06-01T14:25:50.238Z,96254.00
2019-06-01T14:28:22.360Z,96256.00
2019-06-01T14:30:54.385Z,96254.00
2019-06-01T14:33:26.489Z,96254.00
2019-06-01T14:35:58.659Z,96253.00
2019-06-01T14:38:45.978Z,96251.00
2019-06-01T14:41:04.206Z,96240.00
2019-06-01T14:43:36.531Z,96248.00
2019-06-01T14:46:08.773Z,96242.00
2019-06-01T14:48:41.282Z,96242.00
2019-06-01T14:51:14.077Z,96242.00
2019-06-01T14:53:47.510Z,96240.00
2019-06-01T14:56:19.614Z,96236.00
2019-06-01T14:58:51.972Z,96244.00
2019-06-01T15:01:32.606Z,96232.00
2019-06-01T15:03:58.407Z,96233.00
2019-06-01T15:06:31.296Z,96222.00
2019-06-01T15:09:17.953Z,96227.00
2019-06-01T15:11:37.247Z,96221.00
2019-06-01T15:14:09.431Z,96219.00
2019-06-01T15:16:41.543Z,96213.00
2019-06-01T15:19:15.058Z,96215.00
2019-06-01T15:21:47.055Z,96210.00
2019-06-01T15:24:19.236Z,96210.00
2019-06-01T15:26:52.450Z,96217.00
2019-06-01T15:29:24.960Z,96216.00
2019-06-01T15:31:58.043Z,96222.00
2019-06-01T15:34:30.191Z,96217.00
2019-06-01T15:37:02.400Z,96213.00
2019-06-01T15:39:34.746Z,96212.00
2019-06-01T15:42:06.682Z,96210.00
2019-06-01T15:44:38.605Z,96208.00
2019-06-01T15:47:11.564Z,96202.00
2019-06-01T15:49:44.072Z,96198.00
2019-06-01T15:52:16.079Z,96204.00
2019-06-01T15:54:49.615Z,96199.00
2019-06-01T15:57:22.051Z,96193.00
2019-06-01T15:59:54.560Z,96195.00
2019-06-01T16:02:27.255Z,96194.00
2019-06-01T16:05:01.295Z,96194.00
2019-06-01T16:07:33.322Z,96195.00
2019-06-01T16:10:08.032Z,96189.00
2019-06-01T16:12:39.178Z,96189.00
2019-06-01T16:15:11.253Z,96196.00
2019-06-01T16:17:43.508Z,96203.00
2019-06-01T16:20:16.786Z,96192.00
2019-06-01T16:22:49.137Z,96197.00
2019-06-01T16:25:21.671Z,96194.00
2019-06-01T16:27:54.589Z,96190.00
2019-06-01T16:30:26.934Z,96185.00
2019-06-01T16:32:58.816Z,96186.00
2019-06-01T16:35:30.849Z,96186.00
2019-06-01T16:38:04.070Z,96179.00
2019-06-01T16:40:37.047Z,96178.00
2019-06-01T16:43:09.733Z,96174.00
2019-06-01T16:45:42.320Z,96177.00
2019-06-01T16:48:14.822Z,96175.00
2019-06-01T16:50:47.515Z,96161.00
2019-06-01T16:53:19.953Z,96166.00
2019-06-01T16:55:52.258Z,96167.00
2019-06-01T16:58:24.641Z,96168.00
2019-06-01T17:00:58.518Z,96165.00
2019-06-01T17:03:30.731Z,96161.00
2019-06-01T17:06:03.258Z,96174.00
2019-06-01T17:08:35.108Z,96176.00
2019-06-01T17:11:07.539Z,96170.00
2019-06-01T17:13:39.885Z,96174.00
2019-06-01T17:16:11.800Z,96176.00
2019-06-01T17:18:43.936Z,96166.00
2019-06-01T17:21:15.885Z,96170.00
2019-06-01T17:23:48.114Z,96171.00
2019-06-01T17:26:20.740Z,96169.00
2019-06-01T17:28:53.028Z,96169.00
2019-06-01T17:31:25.248Z,96170.00
2019-06-01T17:33:58.332Z,96171.00
2019-06-01T17:36:31.345Z,96168.00
2019-06-01T17:39:03.934Z,96166.00
2019-06-01T17:41:36.231Z,96170.00
2019-06-01T17:44:09.005Z,96167.00
2019-06-01T17:46:52.918Z,96163.00
2019-06-01T17:49:14.861Z,96160.00
2019-06-01T17:51:48.565Z,96162.00
2019-06-01T17:54:20.427Z,96161.00
2019-06-01T17:56:52.407Z,96163.00
2019-06-01T17:59:24.871Z,96159.00
2019-06-01T18:01:57.061Z,96162.00
2019-06-01T18:04:28.994Z,96155.00
2019-06-01T18:07:01.766Z,96155.00
2019-06-01T18:09:34.053Z,96152.00
2019-06-01T18:12:06.233Z,96155.00
2019-06-01T18:14:38.817Z,96162.00
2019-06-01T18:17:12.160Z,96156.00
2019-06-01T18:19:44.846Z,96164.00
2019-06-01T18:22:17.754Z,96159.00
2019-06-01T18:24:50.460Z,96162.00
2019-06-01T18:27:23.208Z,96165.00
2019-06-01T18:29:56.506Z,96157.00
2019-06-01T18:32:28.699Z,96159.00
2019-06-01T18:35:01.222Z,96161.00
2019-06-01T18:37:33.574Z,96165.00
2019-06-01T18:40:05.679Z,96170.00
2019-06-01T18:42:39.491Z,96159.00
2019-06-01T18:45:13.550Z,96170.00
2019-06-01T18:47:46.453Z,96164.00
2019-06-01T18:50:18.595Z,96162.00
2019-06-01T18:52:51.129Z,96163.00
2019-06-01T18:55:23.057Z,96165.00
2019-06-01T18:57:57.445Z,96168.00
2019-06-01T19:00:29.434Z,96163.00
2019-06-01T19:03:02.072Z,96165.00
2019-06-01T19:05:34.602Z,96162.00
2019-06-01T19:08:07.158Z,96159.00
2019-06-01T19:10:39.672Z,96168.00
2019-06-01T19:13:12.340Z,96163.00
2019-06-01T19:15:44.235Z,96160.00
2019-06-01T19:18:17.092Z,96165.00
2019-06-01T19:20:49.795Z,96163.00
2019-06-01T19:23:23.033Z,96167.00
2019-06-01T19:25:55.407Z,96176.00
2019-06-01T19:28:27.682Z,96176.00
2019-06-01T19:30:59.556Z,96170.00
2019-06-01T19:33:31.355Z,96175.00
2019-06-01T19:36:03.600Z,96174.00
2019-06-01T19:38:35.851Z,96178.00
2019-06-01T19:41:07.699Z,96180.00
2019-06-01T19:43:40.013Z,96182.00
2019-06-01T19:46:12.165Z,96182.00
2019-06-01T19:48:44.817Z,96189.00
2019-06-01T19:51:18.691Z,96195.00
2019-06-01T19:53:51.546Z,96198.00
2019-06-01T19:56:23.976Z,96191.00
2019-06-01T19:58:55.949Z,96187.00
2019-06-01T20:01:27.956Z,96201.00
2019-06-01T20:04:00.227Z,96194.00
2019-06-01T20:06:32.364Z,96196.00
2019-06-01T20:09:05.320Z,96199.00
2019-06-01T20:11:37.123Z,96192.00
2019-06-01T20:14:10.193Z,96189.00
2019-06-01T20:16:42.590Z,96205.00
2019-06-01T20:19:17.809Z,96202.00
2019-06-01T20:21:50.357Z,96197.00
2019-06-01T20:24:23.053Z,96203.00
2019-06-01T20:26:55.185Z,96206.00
2019-06-01T20:29:27.689Z,96204.00
2019-06-01T20:32:00.361Z,96209.00
2019-06-01T20:34:32.744Z,96211.00
2019-06-01T20:37:05.312Z,96206.00
2019-06-01T20:39:37.500Z,96210.00
2019-06-01T20:42:20.688Z,96206.00
2019-06-01T20:44:43.917Z,96207.00
2019-06-01T20:47:16.684Z,96210.00
2019-06-01T20:49:50.201Z,96206.00
2019-06-01T20:52:23.302Z,96203.00
2019-06-01T20:54:58.257Z,96206.00
2019-06-01T20:57:30.612Z,96215.00
2019-06-01T21:00:02.811Z,96201.00
2019-06-01T21:02:34.670Z,96218.00
2019-06-01T21:05:07.098Z,96209.00
2019-06-01T21:07:39.628Z,96214.00
2019-06-01T21:10:14.027Z,96212.00
2019-06-01T21:12:46.409Z,96208.00
2019-06-01T21:15:19.292Z,96209.00
2019-06-01T21:17:51.679Z,96205.00
2019-06-01T21:20:28.271Z,96208.00
2019-06-01T21:22:57.327Z,96208.00
2019-06-01T21:25:29.218Z,96205.00
2019-06-01T21:28:01.210Z,96199.00
2019-06-01T21:30:33.381Z,96205.00
2019-06-01T21:33:05.246Z,96208.00
2019-06-01T21:35:37.756Z,96209.00
2019-06-01T21:38:09.971Z,96214.00
2019-06-01T21:40:42.065Z,96217.00
2019-06-01T21:43:28.626Z,96211.00
2019-06-01T21:45:48.142Z,96206.00
2019-06-01T21:48:20.023Z,96202.00
2019-06-01T21:50:51.926Z,96205.00
2019-06-01T21:53:24.633Z,96198.00
2019-06-01T21:55:57.403Z,96199.00
2019-06-01T21:58:45.063Z,96199.00
2019-06-01T22:01:18.454Z,96210.00
2019-06-01T22:03:50.692Z,96204.00
2019-06-01T22:06:23.404Z,96198.00
2019-06-01T22:08:55.789Z,96208.00
2019-06-01T22:11:28.559Z,96212.00
2019-06-01T22:14:00.461Z,96214.00
2019-06-01T22:16:34.060Z,96215.00
2019-06-01T22:19:11.097Z,96213.00
2019-06-01T22:21:43.387Z,96206.00
2019-06-01T22:24:17.708Z,96216.00
2019-06-01T22:26:50.528Z,96197.00
2019-06-01T22:29:22.670Z,96204.00
2019-06-01T22:31:55.185Z,96190.00
2019-06-01T22:34:27.347Z,96189.00
2019-06-01T22:36:59.243Z,96206.00
2019-06-01T22:39:31.365Z,96194.00
2019-06-01T22:42:03.585Z,96188.00
2019-06-01T22:44:35.459Z,96189.00
2019-06-01T22:47:07.789Z,96194.00
2019-06-01T22:49:39.652Z,96194.00
2019-06-01T22:52:11.853Z,96193.00
2019-06-01T22:54:44.018Z,96185.00
2019-06-01T22:57:16.296Z,96184.00
2019-06-01T22:59:48.446Z,96184.00
2019-06-01T23:02:21.512Z,96176.00
2019-06-01T23:04:54.099Z,96183.00
2019-06-01T23:07:27.276Z,96179.00
2019-06-01T23:09:59.684Z,96180.00
2019-06-01T23:12:31.886Z,96176.00
2019-06-01T23:15:03.775Z,96178.00
2019-06-01T23:17:35.952Z,96171.00
2019-06-01T23:20:08.557Z,96178.00
2019-06-01T23:22:40.717Z,96170.00
2019-06-01T23:25:12.636Z,96169.00
2019-06-01T23:27:44.531Z,96169.00
2019-06-01T23:30:16.655Z,96173.00
2019-06-01T23:32:48.828Z,96169.00
2019-06-01T23:35:22.284Z,96168.00
2019-06-01T23:37:54.745Z,96162.00
2019-06-01T23:40:27.194Z,96162.00
2019-06-01T23:42:59.076Z,96164.00
2019-06-01T23:45:31.218Z,96166.00
2019-06-01T23:48:04.540Z,96158.00
2019-06-01T23:50:36.807Z,96156.00
2019-06-01T23:53:13.696Z,96157.00
2019-06-01T23:55:44.279Z,96155.00
2019-06-01T23:58:16.737Z,96163.00
